Terminal Aerodrome Forecast
Issued by NWS

Home | Current Version | Previous Version | Graphics & Text | Print | Product List | Glossary On
Versions: 1 2 3 4 5 6 7 8 9 10 11 12 13 14 15 16 17 18 19 20 21 22 23 24 25 26 27 28
000
FTUS45 KGGW 282300
TAFGDV
TAF
KGDV 282326Z 2900/2924 01011KT P6SM SCT060 BKN090
      TEMPO 2901/2902 VRB20G30KT -TSRA BKN060CB
     FM290300 01016KT P6SM VCSH BKN090
     FM290600 02014G22KT P6SM BKN080
     FM291200 02011KT P6SM SCT250
      AMD LTD TO CLD VIS AND WIND=

USA.gov is the U.S. government's official web portal to all federal, state and local government web resources and services.